Time,TemperatureF,DewpointF,PressureIn,WindDirection,WindDirectionDegrees,WindSpeedMPH,WindSpeedGustMPH,Humidity,HourlyPrecipIn,Conditions,Clouds,dailyrainin,SoftwareType,DateUTC
2013-02-15 00:02:00,34.9,33.3,29.73,South,185,10.0,10.0,94,0.00,,,0.01,Wunderground v.1.15,2013-02-15 05:02:00,
2013-02-15 00:04:00,35.0,33.4,29.73,South,190,10.0,11.0,94,0.00,,,0.01,Wunderground v.1.15,2013-02-15 05:04:00,
2013-02-15 00:10:00,35.0,33.4,29.73,South,184,9.0,9.0,94,0.00,,,0.01,Wunderground v.1.15,2013-02-15 05:10:00,
2013-02-15 00:12:00,35.1,34.0,29.73,South,186,10.0,12.0,94,0.00,,,0.01,weatherlink.com 1.10,2013-02-15 05:12:00,
2013-02-15 00:18:00,35.1,33.3,29.73,South,191,9.0,18.0,93,0.00,,,0.01,Wunderground v.1.15,2013-02-15 05:18:00,
2013-02-15 00:24:00,35.2,33.4,29.73,South,183,9.0,18.0,93,0.00,,,0.01,Wunderground v.1.15,2013-02-15 05:24:00,
2013-02-15 00:32:00,35.5,33.4,29.73,South,186,8.0,18.0,92,0.00,,,0.01,Wunderground v.1.15,2013-02-15 05:32:00,
2013-02-15 00:38:00,35.7,33.6,29.73,SSW,194,8.0,18.0,92,0.00,,,0.01,Wunderground v.1.15,2013-02-15 05:38:00,
2013-02-15 00:44:00,35.9,33.5,29.73,South,191,7.0,18.0,91,0.00,,,0.01,Wunderground v.1.15,2013-02-15 05:44:00,
2013-02-15 00:50:00,35.9,33.3,29.73,SSW,192,7.0,7.0,90,0.00,,,0.01,Wunderground v.1.15,2013-02-15 05:50:00,
2013-02-15 00:56:00,35.9,33.3,29.73,SSW,203,9.0,18.0,90,0.00,,,0.01,Wunderground v.1.15,2013-02-15 05:56:00,
2013-02-15 01:02:00,35.9,33.3,29.73,South,172,9.0,15.0,90,0.00,,,0.00,Wunderground v.1.15,2013-02-15 06:02:00,
2013-02-15 01:08:00,35.8,33.2,29.73,South,190,8.0,15.0,90,0.00,,,0.00,Wunderground v.1.15,2013-02-15 06:08:00,
2013-02-15 01:14:00,35.9,33.0,29.73,SSW,203,7.0,15.0,89,0.00,,,0.00,Wunderground v.1.15,2013-02-15 06:14:00,
2013-02-15 01:20:00,36.1,33.2,29.73,SSW,192,8.0,8.0,89,0.00,,,0.00,Wunderground v.1.15,2013-02-15 06:20:00,
2013-02-15 01:27:00,36.1,33.0,29.73,SSW,207,9.0,11.0,88,0.00,,,0.00,weatherlink.com 1.10,2013-02-15 06:27:00,
2013-02-15 01:34:00,36.2,33.0,29.72,SSW,198,8.0,15.0,88,0.00,,,0.00,Wunderground v.1.15,2013-02-15 06:34:00,
2013-02-15 01:40:00,36.5,33.3,29.72,South,188,7.0,15.0,88,0.00,,,0.00,Wunderground v.1.15,2013-02-15 06:40:00,
2013-02-15 01:46:00,36.5,33.3,29.72,SSW,198,8.0,15.0,88,0.00,,,0.00,Wunderground v.1.15,2013-02-15 06:46:00,
2013-02-15 01:52:00,36.5,33.0,29.72,South,191,9.0,12.0,87,0.00,,,0.00,Wunderground v.1.15,2013-02-15 06:52:00,
2013-02-15 01:57:00,36.5,33.0,29.72,South,188,10.0,13.0,87,0.00,,,0.00,weatherlink.com 1.10,2013-02-15 06:57:00,
2013-02-15 02:04:00,36.6,33.1,29.72,SSW,212,10.0,15.0,87,0.00,,,0.00,Wunderground v.1.15,2013-02-15 07:04:00,
2013-02-15 02:10:00,36.5,32.7,29.72,South,185,10.0,15.0,86,0.00,,,0.00,Wunderground v.1.15,2013-02-15 07:10:00,
2013-02-15 02:16:00,36.4,32.9,29.72,SW,217,10.0,15.0,87,0.00,,,0.00,Wunderground v.1.15,2013-02-15 07:16:00,
2013-02-15 02:22:00,36.2,32.7,29.72,SSW,195,10.0,15.0,87,0.00,,,0.00,Wunderground v.1.15,2013-02-15 07:22:00,
2013-02-15 02:28:00,36.2,32.7,29.72,South,186,10.0,15.0,87,0.00,,,0.00,Wunderground v.1.15,2013-02-15 07:28:00,
2013-02-15 02:34:00,36.3,32.8,29.72,SSW,195,8.0,15.0,87,0.00,,,0.00,Wunderground v.1.15,2013-02-15 07:34:00,
2013-02-15 02:40:00,36.4,32.6,29.72,South,184,7.0,15.0,86,0.00,,,0.00,Wunderground v.1.15,2013-02-15 07:40:00,
2013-02-15 02:46:00,36.5,32.7,29.72,South,175,9.0,15.0,86,0.00,,,0.00,Wunderground v.1.15,2013-02-15 07:46:00,
2013-02-15 02:52:00,36.6,32.8,29.72,SSW,194,9.0,15.0,86,0.00,,,0.00,Wunderground v.1.15,2013-02-15 07:52:00,
2013-02-15 02:58:00,36.9,32.8,29.72,South,180,9.0,15.0,85,0.00,,,0.00,Wunderground v.1.15,2013-02-15 07:58:00,
2013-02-15 03:04:00,37.0,32.9,29.72,SW,229,9.0,17.0,85,0.00,,,0.00,Wunderground v.1.15,2013-02-15 08:04:00,
2013-02-15 03:10:00,37.1,32.7,29.72,South,187,8.0,17.0,84,0.00,,,0.00,Wunderground v.1.15,2013-02-15 08:10:00,
2013-02-15 03:16:00,37.0,32.9,29.72,South,180,9.0,17.0,85,0.00,,,0.00,Wunderground v.1.15,2013-02-15 08:16:00,
2013-02-15 03:22:00,36.7,32.6,29.71,South,178,9.0,17.0,85,0.00,,,0.00,Wunderground v.1.15,2013-02-15 08:22:00,
2013-02-15 03:28:00,36.5,32.7,29.71,South,182,10.0,17.0,86,0.00,,,0.00,Wunderground v.1.15,2013-02-15 08:28:00,
2013-02-15 03:34:00,36.4,32.6,29.71,South,170,10.0,17.0,86,0.00,,,0.00,Wunderground v.1.15,2013-02-15 08:34:00,
2013-02-15 03:40:00,36.4,32.9,29.70,South,185,9.0,17.0,87,0.00,,,0.00,Wunderground v.1.15,2013-02-15 08:40:00,
2013-02-15 03:46:00,36.3,32.8,29.71,South,187,9.0,17.0,87,0.00,,,0.00,Wunderground v.1.15,2013-02-15 08:46:00,
2013-02-15 03:52:00,36.4,32.9,29.71,South,188,9.0,17.0,87,0.00,,,0.00,Wunderground v.1.15,2013-02-15 08:52:00,
2013-02-15 03:58:00,36.6,33.1,29.70,SSW,198,9.0,17.0,87,0.00,,,0.00,Wunderground v.1.15,2013-02-15 08:58:00,
2013-02-15 04:04:00,36.5,32.7,29.70,SSW,202,8.0,15.0,86,0.00,,,0.00,Wunderground v.1.15,2013-02-15 09:04:00,
2013-02-15 04:10:00,36.5,33.0,29.71,South,175,7.0,15.0,87,0.00,,,0.00,Wunderground v.1.15,2013-02-15 09:10:00,
2013-02-15 04:16:00,36.6,32.8,29.71,South,184,8.0,15.0,86,0.00,,,0.00,Wunderground v.1.15,2013-02-15 09:16:00,
2013-02-15 04:22:00,36.7,32.9,29.71,SSW,211,6.0,15.0,86,0.00,,,0.00,Wunderground v.1.15,2013-02-15 09:22:00,
2013-02-15 04:28:00,36.7,32.9,29.71,SSW,207,3.0,15.0,86,0.00,,,0.00,Wunderground v.1.15,2013-02-15 09:28:00,
2013-02-15 04:34:00,36.5,32.7,29.72,SW,225,2.0,15.0,86,0.00,,,0.00,Wunderground v.1.15,2013-02-15 09:34:00,
2013-02-15 04:40:00,36.4,32.6,29.72,SW,214,2.0,15.0,86,0.00,,,0.00,Wunderground v.1.15,2013-02-15 09:40:00,
2013-02-15 04:45:00,36.3,33.0,29.72,SSW,197,5.0,9.0,86,0.00,,,0.00,weatherlink.com 1.10,2013-02-15 09:45:00,
2013-02-15 04:52:00,36.3,32.8,29.72,SSW,198,6.0,15.0,87,0.00,,,0.00,Wunderground v.1.15,2013-02-15 09:52:00,
2013-02-15 04:58:00,36.4,32.9,29.73,SSW,207,4.0,15.0,87,0.00,,,0.00,Wunderground v.1.15,2013-02-15 09:58:00,
2013-02-15 05:04:00,36.5,33.0,29.73,SW,231,3.0,10.0,87,0.00,,,0.00,Wunderground v.1.15,2013-02-15 10:04:00,
2013-02-15 05:10:00,36.8,33.3,29.73,WNW,285,3.0,10.0,87,0.00,,,0.00,Wunderground v.1.15,2013-02-15 10:10:00,
2013-02-15 05:15:00,36.8,33.0,29.73,WNW,302,3.0,8.0,87,0.00,,,0.00,weatherlink.com 1.10,2013-02-15 10:15:00,
2013-02-15 05:20:00,36.7,33.5,29.73,SW,230,2.0,10.0,88,0.00,,,0.00,Wunderground v.1.15,2013-02-15 10:20:00,
2013-02-15 05:26:00,36.9,33.7,29.73,West,275,2.0,10.0,88,0.00,,,0.00,Wunderground v.1.15,2013-02-15 10:26:00,
2013-02-15 05:32:00,37.0,33.8,29.74,WSW,248,2.0,10.0,88,0.00,,,0.00,Wunderground v.1.15,2013-02-15 10:32:00,
2013-02-15 05:38:00,37.1,33.6,29.74,West,271,3.0,10.0,87,0.00,,,0.00,Wunderground v.1.15,2013-02-15 10:38:00,
2013-02-15 05:44:00,37.1,32.4,29.74,WSW,248,4.0,10.0,83,0.00,,,0.00,Wunderground v.1.15,2013-02-15 10:44:00,
2013-02-15 05:50:00,37.2,31.9,29.74,WSW,239,4.0,10.0,81,0.00,,,0.00,Wunderground v.1.15,2013-02-15 10:50:00,
2013-02-15 05:56:00,37.2,31.9,29.74,WSW,247,3.0,10.0,81,0.00,,,0.00,Wunderground v.1.15,2013-02-15 10:56:00,
2013-02-15 06:02:00,37.3,31.7,29.75,WSW,244,4.0,9.0,80,0.00,,,0.00,Wunderground v.1.15,2013-02-15 11:02:00,
2013-02-15 06:08:00,37.2,31.3,29.75,SW,229,3.0,9.0,79,0.00,,,0.00,Wunderground v.1.15,2013-02-15 11:08:00,
2013-02-15 06:14:00,37.2,31.0,29.75,SW,226,3.0,9.0,78,0.00,,,0.00,Wunderground v.1.15,2013-02-15 11:14:00,
2013-02-15 06:20:00,37.2,30.7,29.75,West,262,5.0,5.0,77,0.00,,,0.00,Wunderground v.1.15,2013-02-15 11:20:00,
2013-02-15 06:26:00,37.2,29.3,29.75,West,268,7.0,9.0,73,0.00,,,0.00,Wunderground v.1.15,2013-02-15 11:26:00,
2013-02-15 06:31:00,37.3,29.0,29.75,SW,236,5.0,22.0,73,0.00,,,0.00,weatherlink.com 1.10,2013-02-15 11:31:00,
2013-02-15 06:38:00,37.4,28.9,29.75,SW,227,7.0,12.0,71,0.00,,,0.00,Wunderground v.1.15,2013-02-15 11:38:00,
2013-02-15 06:44:00,37.4,29.2,29.75,SW,227,9.0,12.0,72,0.00,,,0.00,Wunderground v.1.15,2013-02-15 11:44:00,
2013-02-15 06:50:00,37.2,29.3,29.75,WNW,296,7.0,7.0,73,0.00,,,0.00,Wunderground v.1.15,2013-02-15 11:50:00,
2013-02-15 06:56:00,36.9,29.7,29.76,West,270,6.0,9.0,75,0.00,,,0.00,Wunderground v.1.15,2013-02-15 11:56:00,
2013-02-15 07:02:00,36.8,29.9,29.76,West,275,6.0,20.0,76,0.00,,,0.00,Wunderground v.1.15,2013-02-15 12:02:00,
2013-02-15 07:08:00,36.9,29.7,29.76,WNW,282,7.0,20.0,75,0.00,,,0.00,Wunderground v.1.15,2013-02-15 12:08:00,
2013-02-15 07:14:00,36.9,29.7,29.77,WNW,287,9.0,20.0,75,0.00,,,0.00,Wunderground v.1.15,2013-02-15 12:14:00,
2013-02-15 07:20:00,36.6,28.1,29.77,WNW,290,8.0,20.0,71,0.00,,,0.00,Wunderground v.1.15,2013-02-15 12:20:00,
2013-02-15 07:26:00,36.2,27.7,29.78,WNW,290,9.0,20.0,71,0.00,,,0.00,Wunderground v.1.15,2013-02-15 12:26:00,
2013-02-15 07:32:00,36.1,26.9,29.78,WNW,294,10.0,20.0,69,0.00,,,0.00,Wunderground v.1.15,2013-02-15 12:32:00,
2013-02-15 07:38:00,35.9,27.1,29.78,WNW,298,11.0,20.0,70,0.00,,,0.00,Wunderground v.1.15,2013-02-15 12:38:00,
2013-02-15 07:44:00,35.8,26.6,29.78,WNW,284,11.0,20.0,69,0.00,,,0.00,Wunderground v.1.15,2013-02-15 12:44:00,
2013-02-15 07:50:00,35.7,26.9,29.79,WNW,290,10.0,20.0,70,0.00,,,0.00,Wunderground v.1.15,2013-02-15 12:50:00,
2013-02-15 07:56:00,35.7,26.9,29.79,West,280,12.0,20.0,70,0.00,,,0.00,Wunderground v.1.15,2013-02-15 12:56:00,
2013-02-15 08:02:00,35.7,27.0,29.80,WNW,300,13.0,18.0,70,0.00,,,0.00,weatherlink.com 1.10,2013-02-15 13:02:00,
2013-02-15 08:08:00,35.7,26.9,29.80,West,274,9.0,19.0,70,0.00,,,0.00,Wunderground v.1.15,2013-02-15 13:08:00,
2013-02-15 08:14:00,35.6,27.1,29.80,WNW,294,8.0,19.0,71,0.00,,,0.00,Wunderground v.1.15,2013-02-15 13:14:00,
2013-02-15 08:20:00,35.6,26.8,29.81,WSW,248,7.0,19.0,70,0.00,,,0.00,Wunderground v.1.15,2013-02-15 13:20:00,
2013-02-15 08:26:00,35.6,26.4,29.81,West,273,8.0,19.0,69,0.00,,,0.00,Wunderground v.1.15,2013-02-15 13:26:00,
2013-02-15 08:32:00,35.7,26.5,29.81,SW,227,8.0,19.0,69,0.00,,,0.00,Wunderground v.1.15,2013-02-15 13:32:00,
2013-02-15 08:38:00,35.8,26.3,29.82,WNW,289,8.0,19.0,68,0.00,,,0.00,Wunderground v.1.15,2013-02-15 13:38:00,
2013-02-15 08:44:00,35.8,25.9,29.82,WSW,238,11.0,15.0,67,0.00,,,0.00,Wunderground v.1.15,2013-02-15 13:44:00,
2013-02-15 08:50:00,35.8,25.9,29.82,WNW,294,12.0,12.0,67,0.00,,,0.00,Wunderground v.1.15,2013-02-15 13:50:00,
2013-02-15 08:56:00,35.7,26.2,29.82,WSW,243,7.0,19.0,68,0.00,,,0.00,Wunderground v.1.15,2013-02-15 13:56:00,
2013-02-15 09:02:00,35.9,26.4,29.82,SW,221,6.0,7.0,68,0.00,,,0.00,Wunderground v.1.15,2013-02-15 14:02:00,
2013-02-15 09:08:00,35.9,26.4,29.82,West,267,7.0,23.0,68,0.00,,,0.00,Wunderground v.1.15,2013-02-15 14:08:00,
2013-02-15 09:14:00,36.0,26.5,29.82,South,191,9.0,23.0,68,0.00,,,0.00,Wunderground v.1.15,2013-02-15 14:14:00,
2013-02-15 09:20:00,36.0,25.7,29.82,WSW,240,9.0,23.0,66,0.00,,,0.00,Wunderground v.1.15,2013-02-15 14:20:00,
2013-02-15 09:26:00,35.8,26.3,29.82,WSW,252,11.0,23.0,68,0.00,,,0.00,Wunderground v.1.15,2013-02-15 14:26:00,
2013-02-15 09:32:00,35.8,26.3,29.82,WSW,257,10.0,23.0,68,0.00,,,0.00,Wunderground v.1.15,2013-02-15 14:32:00,
2013-02-15 09:38:00,35.7,26.2,29.82,SW,230,10.0,23.0,68,0.00,,,0.00,Wunderground v.1.15,2013-02-15 14:38:00,
2013-02-15 09:44:00,35.9,26.4,29.82,WSW,246,9.0,23.0,68,0.00,,,0.00,Wunderground v.1.15,2013-02-15 14:44:00,
2013-02-15 09:50:00,36.0,26.5,29.82,West,273,7.0,23.0,68,0.00,,,0.00,Wunderground v.1.15,2013-02-15 14:50:00,
2013-02-15 09:56:00,36.0,26.5,29.82,West,266,7.0,23.0,68,0.00,,,0.00,Wunderground v.1.15,2013-02-15 14:56:00,
2013-02-15 10:02:00,36.1,26.2,29.83,SW,219,7.0,22.0,67,0.00,,,0.00,Wunderground v.1.15,2013-02-15 15:02:00,
2013-02-15 10:08:00,36.1,26.2,29.83,West,261,8.0,22.0,67,0.00,,,0.00,Wunderground v.1.15,2013-02-15 15:08:00,
2013-02-15 10:14:00,36.1,26.2,29.83,SW,229,8.0,22.0,67,0.00,,,0.00,Wunderground v.1.15,2013-02-15 15:14:00,
2013-02-15 10:20:00,36.1,26.2,29.83,SW,234,9.0,22.0,67,0.00,,,0.00,Wunderground v.1.15,2013-02-15 15:20:00,
2013-02-15 10:26:00,36.0,26.1,29.83,SW,234,10.0,22.0,67,0.00,,,0.00,Wunderground v.1.15,2013-02-15 15:26:00,
2013-02-15 10:32:00,36.0,26.1,29.83,WNW,288,9.0,22.0,67,0.00,,,0.00,Wunderground v.1.15,2013-02-15 15:32:00,
2013-02-15 10:38:00,36.0,26.5,29.84,NW,307,10.0,22.0,68,0.00,,,0.00,Wunderground v.1.15,2013-02-15 15:38:00,
2013-02-15 10:44:00,36.0,26.1,29.83,WSW,253,9.0,22.0,67,0.00,,,0.00,Wunderground v.1.15,2013-02-15 15:44:00,
2013-02-15 10:50:00,36.1,26.6,29.84,West,271,8.0,22.0,68,0.00,,,0.00,Wunderground v.1.15,2013-02-15 15:50:00,
2013-02-15 10:56:00,36.1,26.2,29.84,West,265,7.0,22.0,67,0.00,,,0.00,Wunderground v.1.15,2013-02-15 15:56:00,
2013-02-15 11:02:00,36.1,26.9,29.84,WNW,294,7.0,11.0,69,0.00,,,0.00,Wunderground v.1.15,2013-02-15 16:02:00,
2013-02-15 11:08:00,36.1,26.9,29.84,WNW,286,7.0,19.0,69,0.00,,,0.00,Wunderground v.1.15,2013-02-15 16:08:00,
2013-02-15 11:14:00,36.1,26.6,29.84,WNW,287,8.0,19.0,68,0.00,,,0.00,Wunderground v.1.15,2013-02-15 16:14:00,
2013-02-15 11:19:00,36.2,27.0,29.84,SW,228,4.0,16.0,69,0.00,,,0.00,weatherlink.com 1.10,2013-02-15 16:19:00,
2013-02-15 11:26:00,36.2,27.0,29.84,SW,221,7.0,19.0,69,0.00,,,0.00,Wunderground v.1.15,2013-02-15 16:26:00,
2013-02-15 11:32:00,36.2,27.4,29.84,West,269,6.0,19.0,70,0.00,,,0.00,Wunderground v.1.15,2013-02-15 16:32:00,
2013-02-15 11:38:00,36.2,26.6,29.84,WSW,240,8.0,19.0,68,0.00,,,0.00,Wunderground v.1.15,2013-02-15 16:38:00,
2013-02-15 11:44:00,36.2,27.0,29.84,West,262,8.0,19.0,69,0.00,,,0.00,Wunderground v.1.15,2013-02-15 16:44:00,
2013-02-15 11:50:00,36.4,26.5,29.83,West,263,9.0,19.0,67,0.00,,,0.00,Wunderground v.1.15,2013-02-15 16:50:00,
2013-02-15 11:56:00,36.3,26.4,29.83,West,263,10.0,19.0,67,0.00,,,0.00,Wunderground v.1.15,2013-02-15 16:56:00,
2013-02-15 12:02:00,36.3,26.4,29.83,WNW,287,11.0,21.0,67,0.00,,,0.00,Wunderground v.1.15,2013-02-15 17:02:00,
2013-02-15 12:08:00,36.3,26.4,29.83,WNW,300,10.0,21.0,67,0.00,,,0.00,Wunderground v.1.15,2013-02-15 17:08:00,
2013-02-15 12:14:00,36.2,26.6,29.83,SW,232,8.0,21.0,68,0.00,,,0.00,Wunderground v.1.15,2013-02-15 17:14:00,
2013-02-15 12:19:00,36.2,27.0,29.83,WNW,300,8.0,16.0,68,0.00,,,0.00,weatherlink.com 1.10,2013-02-15 17:19:00,
2013-02-15 12:26:00,36.2,27.0,29.83,WNW,284,7.0,21.0,69,0.00,,,0.00,Wunderground v.1.15,2013-02-15 17:26:00,
2013-02-15 12:32:00,36.4,27.5,29.83,West,280,7.0,21.0,70,0.00,,,0.00,Wunderground v.1.15,2013-02-15 17:32:00,
2013-02-15 12:38:00,36.6,26.3,29.83,WNW,300,8.0,21.0,66,0.00,,,0.00,Wunderground v.1.15,2013-02-15 17:38:00,
2013-02-15 12:44:00,36.6,26.3,29.83,WNW,290,11.0,21.0,66,0.00,,,0.00,Wunderground v.1.15,2013-02-15 17:44:00,
2013-02-15 12:49:00,36.6,26.0,29.83,West,270,11.0,18.0,66,0.00,,,0.00,weatherlink.com 1.10,2013-02-15 17:49:00,
2013-02-15 12:56:00,36.6,26.3,29.82,NW,313,8.0,21.0,66,0.00,,,0.00,Wunderground v.1.15,2013-02-15 17:56:00,
2013-02-15 13:02:00,36.6,25.9,29.82,WNW,296,10.0,11.0,65,0.00,,,0.00,Wunderground v.1.15,2013-02-15 18:02:00,
2013-02-15 13:08:00,36.6,25.9,29.82,West,272,12.0,19.0,65,0.00,,,0.00,Wunderground v.1.15,2013-02-15 18:08:00,
2013-02-15 13:14:00,36.6,26.3,29.83,WNW,292,11.0,19.0,66,0.00,,,0.00,Wunderground v.1.15,2013-02-15 18:14:00,
2013-02-15 13:20:00,36.4,27.9,29.83,North,350,9.0,9.0,71,0.00,,,0.00,Wunderground v.1.15,2013-02-15 18:20:00,
2013-02-15 13:26:00,35.9,28.4,29.83,NW,317,7.0,19.0,74,0.00,,,0.00,Wunderground v.1.15,2013-02-15 18:26:00,
2013-02-15 13:32:00,35.9,29.1,29.82,North,350,5.0,19.0,76,0.00,,,0.00,Wunderground v.1.15,2013-02-15 18:32:00,
2013-02-15 13:38:00,35.9,29.1,29.82,NNW,341,4.0,19.0,76,0.00,,,0.00,Wunderground v.1.15,2013-02-15 18:38:00,
2013-02-15 13:44:00,35.6,29.1,29.82,NNW,329,5.0,19.0,77,0.00,,,0.00,Wunderground v.1.15,2013-02-15 18:44:00,
2013-02-15 13:50:00,35.6,29.7,29.82,NNW,340,5.0,5.0,79,0.00,,,0.00,Wunderground v.1.15,2013-02-15 18:50:00,
2013-02-15 13:56:00,35.3,29.1,29.82,NW,318,6.0,19.0,78,0.00,,,0.00,Wunderground v.1.15,2013-02-15 18:56:00,
2013-02-15 14:02:00,35.2,29.0,29.82,NW,322,7.0,11.0,78,0.00,,,0.00,Wunderground v.1.15,2013-02-15 19:02:00,
2013-02-15 14:12:00,35.3,28.8,29.82,NW,311,7.0,11.0,77,0.00,,,0.00,Wunderground v.1.15,2013-02-15 19:12:00,
2013-02-15 14:18:00,35.5,28.7,29.82,WNW,295,8.0,11.0,76,0.00,,,0.00,Wunderground v.1.15,2013-02-15 19:18:00,
2013-02-15 14:24:00,35.6,28.8,29.82,NW,313,8.0,11.0,76,0.00,,,0.00,Wunderground v.1.15,2013-02-15 19:24:00,
2013-02-15 14:30:00,35.9,28.7,29.82,WNW,294,8.0,8.0,75,0.00,,,0.00,Wunderground v.1.15,2013-02-15 19:30:00,
2013-02-15 14:35:00,36.0,29.0,29.82,WNW,293,8.0,13.0,75,0.00,,,0.00,weatherlink.com 1.10,2013-02-15 19:35:00,
2013-02-15 14:42:00,35.9,28.4,29.82,WNW,303,9.0,12.0,74,0.00,,,0.00,Wunderground v.1.15,2013-02-15 19:42:00,
2013-02-15 14:48:00,35.8,28.6,29.82,NW,314,9.0,12.0,75,0.00,,,0.00,Wunderground v.1.15,2013-02-15 19:48:00,
2013-02-15 14:54:00,35.8,28.3,29.82,WNW,294,8.0,11.0,74,0.00,,,0.00,Wunderground v.1.15,2013-02-15 19:54:00,
2013-02-15 15:00:00,35.9,28.1,29.82,WNW,290,8.0,8.0,73,0.00,,,0.00,Wunderground v.1.15,2013-02-15 20:00:00,
2013-02-15 15:06:00,35.9,28.4,29.83,NW,319,8.0,14.0,74,0.00,,,0.00,Wunderground v.1.15,2013-02-15 20:06:00,
2013-02-15 15:18:00,35.3,27.8,29.83,NNW,327,9.0,14.0,74,0.00,,,0.00,Wunderground v.1.15,2013-02-15 20:18:00,
2013-02-15 15:24:00,34.9,28.1,29.83,NW,308,8.0,14.0,76,0.00,,,0.00,Wunderground v.1.15,2013-02-15 20:24:00,
2013-02-15 15:30:00,34.7,28.2,29.83,NNW,329,8.0,14.0,77,0.00,,,0.00,Wunderground v.1.15,2013-02-15 20:30:00,
2013-02-15 15:36:00,34.6,28.1,29.83,WNW,303,8.0,14.0,77,0.00,,,0.00,Wunderground v.1.15,2013-02-15 20:36:00,
2013-02-15 15:42:00,34.8,28.3,29.83,NW,304,7.0,14.0,77,0.00,,,0.00,Wunderground v.1.15,2013-02-15 20:42:00,
2013-02-15 15:48:00,34.7,28.2,29.84,NW,304,7.0,14.0,77,0.00,,,0.00,Wunderground v.1.15,2013-02-15 20:48:00,
2013-02-15 15:54:00,34.7,28.2,29.83,NW,309,7.0,14.0,77,0.00,,,0.00,Wunderground v.1.15,2013-02-15 20:54:00,
2013-02-15 16:00:00,34.7,27.9,29.83,NW,316,7.0,9.0,76,0.00,,,0.00,Wunderground v.1.15,2013-02-15 21:00:00,
2013-02-15 16:06:00,34.7,27.9,29.83,NW,315,7.0,12.0,76,0.00,,,0.00,Wunderground v.1.15,2013-02-15 21:06:00,
2013-02-15 16:14:00,34.7,28.2,29.84,NW,325,6.0,12.0,77,0.00,,,0.00,Wunderground v.1.15,2013-02-15 21:14:00,
2013-02-15 16:20:00,34.7,27.9,29.84,NW,319,6.0,12.0,76,0.00,,,0.00,Wunderground v.1.15,2013-02-15 21:20:00,
2013-02-15 16:26:00,34.7,27.9,29.84,NW,317,6.0,12.0,76,0.00,,,0.00,Wunderground v.1.15,2013-02-15 21:26:00,
2013-02-15 16:32:00,34.7,27.9,29.84,NW,319,6.0,12.0,76,0.00,,,0.00,Wunderground v.1.15,2013-02-15 21:32:00,
2013-02-15 16:37:00,34.6,27.0,29.85,NW,311,6.0,9.0,75,0.00,,,0.00,weatherlink.com 1.10,2013-02-15 21:37:00,
2013-02-15 16:44:00,34.6,27.5,29.85,NW,309,6.0,12.0,75,0.00,,,0.00,Wunderground v.1.15,2013-02-15 21:44:00,
2013-02-15 16:50:00,34.5,27.4,29.85,NW,311,6.0,12.0,75,0.00,,,0.00,Wunderground v.1.15,2013-02-15 21:50:00,
2013-02-15 16:56:00,34.3,27.2,29.85,NNW,341,5.0,12.0,75,0.00,,,0.00,Wunderground v.1.15,2013-02-15 21:56:00,
2013-02-15 17:02:00,34.2,27.4,29.85,NNW,339,5.0,6.0,76,0.00,,,0.00,Wunderground v.1.15,2013-02-15 22:02:00,
2013-02-15 17:08:00,33.9,27.0,29.85,NNW,345,3.0,9.0,76,0.00,,,0.00,weatherlink.com 1.10,2013-02-15 22:08:00,
2013-02-15 17:14:00,33.7,26.6,29.85,NNW,339,5.0,11.0,75,0.00,,,0.00,Wunderground v.1.15,2013-02-15 22:14:00,
2013-02-15 17:20:00,33.6,26.2,29.86,North,349,5.0,5.0,74,0.00,,,0.00,Wunderground v.1.15,2013-02-15 22:20:00,
2013-02-15 17:26:00,33.5,26.4,29.85,NNW,344,4.0,11.0,75,0.00,,,0.00,Wunderground v.1.15,2013-02-15 22:26:00,
2013-02-15 17:32:00,33.2,25.8,29.86,NW,323,5.0,11.0,74,0.00,,,0.00,Wunderground v.1.15,2013-02-15 22:32:00,
2013-02-15 17:37:00,33.1,26.0,29.86,NNW,329,6.0,14.0,75,0.00,,,0.00,weatherlink.com 1.10,2013-02-15 22:37:00,
2013-02-15 17:44:00,32.9,25.8,29.86,NW,317,5.0,11.0,75,0.00,,,0.00,Wunderground v.1.15,2013-02-15 22:44:00,
2013-02-15 17:50:00,32.7,25.6,29.86,NW,309,8.0,8.0,75,0.00,,,0.00,Wunderground v.1.15,2013-02-15 22:50:00,
2013-02-15 17:56:00,32.7,25.6,29.86,NW,326,8.0,11.0,75,0.00,,,0.00,Wunderground v.1.15,2013-02-15 22:56:00,
2013-02-15 18:02:00,32.8,25.1,29.86,NW,315,8.0,10.0,73,0.00,,,0.00,Wunderground v.1.15,2013-02-15 23:02:00,
2013-02-15 18:07:00,32.8,25.0,29.86,NW,317,7.0,16.0,73,0.00,,,0.00,weatherlink.com 1.10,2013-02-15 23:07:00,
2013-02-15 18:14:00,32.7,24.7,29.86,NNW,342,6.0,15.0,72,0.00,,,0.00,Wunderground v.1.15,2013-02-15 23:14:00,
2013-02-15 18:20:00,32.8,24.8,29.86,NNW,338,6.0,6.0,72,0.00,,,0.00,Wunderground v.1.15,2013-02-15 23:20:00,
2013-02-15 18:26:00,32.8,25.1,29.87,North,349,6.0,15.0,73,0.00,,,0.00,Wunderground v.1.15,2013-02-15 23:26:00,
2013-02-15 18:32:00,32.8,24.8,29.87,NW,323,5.0,15.0,72,0.00,,,0.00,Wunderground v.1.15,2013-02-15 23:32:00,
2013-02-15 18:38:00,32.8,25.0,29.87,NW,319,4.0,11.0,73,0.00,,,0.00,weatherlink.com 1.10,2013-02-15 23:38:00,
2013-02-15 18:44:00,32.6,24.9,29.87,NW,318,4.0,15.0,73,0.00,,,0.00,Wunderground v.1.15,2013-02-15 23:44:00,
2013-02-15 18:50:00,32.4,25.0,29.87,NW,321,5.0,15.0,74,0.00,,,0.00,Wunderground v.1.15,2013-02-15 23:50:00,
2013-02-15 18:56:00,32.1,25.4,29.87,NW,321,6.0,15.0,76,0.00,,,0.00,Wunderground v.1.15,2013-02-15 23:56:00,
2013-02-15 19:02:00,31.9,25.2,29.87,NNE,21,6.0,12.0,76,0.00,,,0.00,Wunderground v.1.15,2013-02-16 00:02:00,
2013-02-15 19:08:00,31.9,24.9,29.88,North,355,5.0,12.0,75,0.00,,,0.00,Wunderground v.1.15,2013-02-16 00:08:00,
2013-02-15 19:14:00,31.7,24.4,29.88,NNW,344,5.0,12.0,74,0.00,,,0.00,Wunderground v.1.15,2013-02-16 00:14:00,
2013-02-15 19:20:00,31.7,23.4,29.89,NW,319,5.0,12.0,71,0.00,,,0.00,Wunderground v.1.15,2013-02-16 00:20:00,
2013-02-15 19:26:00,31.6,23.3,29.89,NW,324,5.0,12.0,71,0.00,,,0.00,Wunderground v.1.15,2013-02-16 00:26:00,
2013-02-15 19:32:00,31.4,23.7,29.89,NNW,328,5.0,12.0,73,0.00,,,0.00,Wunderground v.1.15,2013-02-16 00:32:00,
2013-02-15 19:38:00,31.2,23.5,29.89,NW,320,5.0,12.0,73,0.00,,,0.00,Wunderground v.1.15,2013-02-16 00:38:00,
2013-02-15 19:48:00,31.0,23.7,29.89,North,350,5.0,12.0,74,0.00,,,0.00,Wunderground v.1.15,2013-02-16 00:48:00,
2013-02-15 19:54:00,31.1,24.1,29.89,NW,320,4.0,12.0,75,0.00,,,0.00,Wunderground v.1.15,2013-02-16 00:54:00,
2013-02-15 20:02:00,31.0,24.3,29.89,NW,312,5.0,10.0,76,0.00,,,0.00,Wunderground v.1.15,2013-02-16 01:02:00,
2013-02-15 20:08:00,30.9,23.9,29.89,NNE,32,1.0,12.0,75,0.00,,,0.00,Wunderground v.1.15,2013-02-16 01:08:00,
2013-02-15 20:14:00,30.7,24.0,29.89,NW,320,6.0,12.0,76,0.00,,,0.00,Wunderground v.1.15,2013-02-16 01:14:00,
2013-02-15 20:20:00,30.6,23.9,29.89,North,350,5.0,5.0,76,0.00,,,0.00,Wunderground v.1.15,2013-02-16 01:20:00,
2013-02-15 20:26:00,30.5,23.5,29.89,NW,316,4.0,12.0,75,0.00,,,0.00,Wunderground v.1.15,2013-02-16 01:26:00,
2013-02-15 20:32:00,30.5,23.5,29.89,North,349,4.0,12.0,75,0.00,,,0.00,Wunderground v.1.15,2013-02-16 01:32:00,
2013-02-15 20:38:00,30.4,23.4,29.89,North,349,3.0,12.0,75,0.00,,,0.00,Wunderground v.1.15,2013-02-16 01:38:00,
2013-02-15 20:44:00,30.3,23.6,29.90,NNW,347,2.0,12.0,76,0.00,,,0.00,Wunderground v.1.15,2013-02-16 01:44:00,
2013-02-15 20:50:00,30.2,23.5,29.90,NNW,336,3.0,12.0,76,0.00,,,0.00,Wunderground v.1.15,2013-02-16 01:50:00,
2013-02-15 20:56:00,30.0,23.4,29.90,NW,325,3.0,12.0,76,0.00,,,0.00,Wunderground v.1.15,2013-02-16 01:56:00,
2013-02-15 21:04:00,29.7,23.1,29.90,NW,317,3.0,6.0,76,0.00,,,0.00,Wunderground v.1.15,2013-02-16 02:04:00,
2013-02-15 21:09:00,29.6,23.0,29.90,NNW,333,2.0,7.0,77,0.00,,,0.00,weatherlink.com 1.10,2013-02-16 02:09:00,
2013-02-15 21:16:00,29.6,23.3,29.90,North,351,3.0,6.0,77,0.00,,,0.00,Wunderground v.1.15,2013-02-16 02:16:00,
2013-02-15 21:22:00,29.6,23.3,29.90,NNW,340,4.0,6.0,77,0.00,,,0.00,Wunderground v.1.15,2013-02-16 02:22:00,
2013-02-15 21:28:00,29.5,23.2,29.90,NNW,340,4.0,6.0,77,0.00,,,0.00,Wunderground v.1.15,2013-02-16 02:28:00,
2013-02-15 21:36:00,29.4,23.1,29.90,NNW,344,5.0,7.0,77,0.00,,,0.00,Wunderground v.1.15,2013-02-16 02:36:00,
2013-02-15 21:42:00,29.3,23.0,29.90,NNW,327,5.0,10.0,77,0.00,,,0.00,Wunderground v.1.15,2013-02-16 02:42:00,
2013-02-15 21:48:00,29.2,22.9,29.90,North,355,2.0,10.0,77,0.00,,,0.00,Wunderground v.1.15,2013-02-16 02:48:00,
2013-02-15 21:54:00,29.0,23.0,29.90,NNW,344,4.0,6.0,78,0.00,,,0.00,Wunderground v.1.15,2013-02-16 02:54:00,
2013-02-15 22:00:00,28.8,22.8,29.90,NW,315,5.0,5.0,78,0.00,,,0.00,Wunderground v.1.15,2013-02-16 03:00:00,
2013-02-15 22:06:00,28.6,22.6,29.90,NW,325,5.0,13.0,78,0.00,,,0.00,Wunderground v.1.15,2013-02-16 03:06:00,
2013-02-15 22:12:00,28.6,22.6,29.90,NW,319,5.0,13.0,78,0.00,,,0.00,Wunderground v.1.15,2013-02-16 03:12:00,
2013-02-15 22:18:00,28.5,22.5,29.90,NW,317,5.0,13.0,78,0.00,,,0.00,Wunderground v.1.15,2013-02-16 03:18:00,
2013-02-15 22:24:00,28.4,22.4,29.90,WNW,292,4.0,13.0,78,0.00,,,0.00,Wunderground v.1.15,2013-02-16 03:24:00,
2013-02-15 22:30:00,28.4,22.4,29.90,WNW,288,4.0,13.0,78,0.00,,,0.00,Wunderground v.1.15,2013-02-16 03:30:00,
2013-02-15 22:36:00,28.4,22.4,29.91,NW,313,5.0,13.0,78,0.00,,,0.00,Wunderground v.1.15,2013-02-16 03:36:00,
2013-02-15 22:42:00,28.4,22.4,29.91,NW,311,5.0,13.0,78,0.00,,,0.00,Wunderground v.1.15,2013-02-16 03:42:00,
2013-02-15 22:50:00,28.3,22.9,29.91,NW,320,4.0,4.0,80,0.00,,,0.00,Wunderground v.1.15,2013-02-16 03:50:00,
2013-02-15 22:56:00,28.2,23.1,29.91,NNW,336,4.0,13.0,81,0.00,,,0.00,Wunderground v.1.15,2013-02-16 03:56:00,
2013-02-15 23:02:00,28.2,23.1,29.91,NNW,328,3.0,9.0,81,0.00,,,0.00,Wunderground v.1.15,2013-02-16 04:02:00,
2013-02-15 23:08:00,27.7,23.2,29.91,NNW,346,3.0,9.0,83,0.00,,,0.00,Wunderground v.1.15,2013-02-16 04:08:00,
2013-02-15 23:14:00,27.4,23.5,29.91,North,355,4.0,9.0,85,0.00,,,0.00,Wunderground v.1.15,2013-02-16 04:14:00,
2013-02-15 23:20:00,27.2,23.3,29.91,NNW,346,4.0,9.0,85,0.00,,,0.00,Wunderground v.1.15,2013-02-16 04:20:00,
2013-02-15 23:26:00,27.0,23.1,29.91,NW,322,4.0,9.0,85,0.00,,,0.00,Wunderground v.1.15,2013-02-16 04:26:00,
2013-02-15 23:32:00,26.9,23.3,29.91,NNW,348,4.0,4.0,86,0.00,,,0.00,Wunderground v.1.15,2013-02-16 04:32:00,
2013-02-15 23:38:00,26.9,23.5,29.91,NNW,344,4.0,9.0,87,0.00,,,0.00,Wunderground v.1.15,2013-02-16 04:38:00,
2013-02-15 23:44:00,26.6,23.3,29.91,NNW,337,5.0,9.0,87,0.00,,,0.00,Wunderground v.1.15,2013-02-16 04:44:00,
2013-02-15 23:50:00,26.5,23.4,29.91,North,351,5.0,9.0,88,0.00,,,0.00,Wunderground v.1.15,2013-02-16 04:50:00,
2013-02-15 23:56:00,26.5,23.4,29.91,North,355,4.0,9.0,88,0.00,,,0.00,Wunderground v.1.15,2013-02-16 04:56:00,